createdAt,value
2022-07-25T00:01:52.212Z,6.40
2022-07-25T00:04:19.184Z,6.77
2022-07-25T00:06:46.038Z,6.20
2022-07-25T00:09:13.400Z,6.77
2022-07-25T00:11:40.089Z,6.67
2022-07-25T00:14:07.313Z,5.90
2022-07-25T00:16:34.563Z,6.63
2022-07-25T00:19:01.295Z,6.77
2022-07-25T00:21:28.433Z,6.83
2022-07-25T00:23:55.069Z,6.77
2022-07-25T00:26:21.812Z,6.07
2022-07-25T00:28:48.458Z,5.77
2022-07-25T00:31:15.262Z,6.67
2022-07-25T00:33:42.030Z,6.10
2022-07-25T00:36:09.322Z,6.53
2022-07-25T00:38:36.399Z,6.37
2022-07-25T00:41:04.186Z,6.63
2022-07-25T00:43:31.634Z,6.40
2022-07-25T00:45:59.483Z,6.87
2022-07-25T00:48:28.287Z,5.77
2022-07-25T00:50:56.449Z,6.40
2022-07-25T00:53:23.809Z,6.07
2022-07-25T00:55:50.888Z,5.93
2022-07-25T00:58:18.858Z,5.83
2022-07-25T01:00:45.688Z,6.27
2022-07-25T01:03:12.713Z,6.63
2022-07-25T01:05:39.682Z,7.30
2022-07-25T01:08:07.107Z,6.17
2022-07-25T01:10:34.422Z,6.13
2022-07-25T01:13:01.272Z,6.23
2022-07-25T01:15:28.155Z,6.60
2022-07-25T01:17:55.245Z,6.47
2022-07-25T01:20:24.560Z,6.50
2022-07-25T01:22:52.179Z,6.23
2022-07-25T01:25:19.502Z,6.27
2022-07-25T01:27:52.757Z,5.37
2022-07-25T01:30:22.535Z,6.10
2022-07-25T01:32:49.311Z,6.73
2022-07-25T01:35:16.007Z,6.07
2022-07-25T01:37:45.395Z,5.87
2022-07-25T01:40:13.648Z,5.10
2022-07-25T01:42:40.402Z,6.17
2022-07-25T01:45:07.796Z,6.60
2022-07-25T01:47:34.480Z,5.60
2022-07-25T01:50:01.149Z,5.80
2022-07-25T01:52:27.824Z,6.37
2022-07-25T01:54:54.451Z,6.33
2022-07-25T01:57:21.554Z,5.63
2022-07-25T01:59:51.096Z,6.13
2022-07-25T02:02:17.775Z,5.37
2022-07-25T02:04:44.463Z,6.30
2022-07-25T02:07:11.339Z,5.97
2022-07-25T02:09:37.969Z,6.60
2022-07-25T02:12:07.308Z,6.90
2022-07-25T02:14:34.179Z,6.03
2022-07-25T02:17:00.966Z,5.77
2022-07-25T02:19:27.668Z,5.33
2022-07-25T02:21:54.423Z,5.53
2022-07-25T02:24:21.076Z,6.37
2022-07-25T02:26:47.996Z,5.97
2022-07-25T02:29:14.630Z,5.30
2022-07-25T02:31:41.361Z,6.50
2022-07-25T02:34:08.474Z,6.00
2022-07-25T02:36:35.312Z,5.63
2022-07-25T02:39:02.437Z,6.00
2022-07-25T02:41:29.083Z,6.50
2022-07-25T02:43:55.759Z,5.37
2022-07-25T02:46:22.949Z,5.47
2022-07-25T02:48:49.800Z,5.20
2022-07-25T02:51:18.545Z,6.50
2022-07-25T02:53:57.033Z,5.13
2022-07-25T02:56:25.095Z,5.00
2022-07-25T02:58:51.725Z,4.87
2022-07-25T03:01:18.402Z,5.43
2022-07-25T03:03:45.181Z,4.70
2022-07-25T03:06:11.919Z,4.97
2022-07-25T03:08:38.537Z,4.73
2022-07-25T03:11:06.036Z,4.70
2022-07-25T03:13:33.303Z,4.57
2022-07-25T03:16:00.358Z,4.50
2022-07-25T03:18:26.986Z,4.97
2022-07-25T03:20:53.658Z,4.77
2022-07-25T03:23:20.400Z,4.23
2022-07-25T03:25:48.325Z,4.17
2022-07-25T03:28:14.966Z,4.13
2022-07-25T03:30:41.592Z,3.90
2022-07-25T03:33:08.286Z,3.90
2022-07-25T03:35:36.951Z,4.63
2022-07-25T03:38:04.033Z,4.30
2022-07-25T03:40:31.644Z,4.37
2022-07-25T03:42:58.434Z,4.20
2022-07-25T03:45:25.270Z,4.23
2022-07-25T03:47:51.980Z,4.53
2022-07-25T03:50:18.719Z,4.30
2022-07-25T03:52:45.455Z,3.80
2022-07-25T03:55:12.263Z,3.73
2022-07-25T03:57:39.336Z,3.60
2022-07-25T04:00:09.052Z,4.67
2022-07-25T04:02:37.646Z,4.53
2022-07-25T04:05:06.338Z,3.37
2022-07-25T04:07:33.094Z,3.70
2022-07-25T04:09:59.880Z,3.90
2022-07-25T04:12:26.651Z,4.37
2022-07-25T04:14:53.335Z,3.43
2022-07-25T04:17:20.091Z,2.90
2022-07-25T04:19:47.645Z,3.70
2022-07-25T04:22:14.825Z,3.93
2022-07-25T04:24:41.553Z,3.30
2022-07-25T04:27:08.212Z,3.33
2022-07-25T04:29:34.888Z,3.53
2022-07-25T04:32:01.646Z,3.63
2022-07-25T04:34:28.439Z,3.30
2022-07-25T04:36:55.068Z,3.43
2022-07-25T04:39:21.735Z,3.50
2022-07-25T04:41:48.648Z,3.30
2022-07-25T04:44:15.462Z,3.17
2022-07-25T04:46:42.129Z,2.97
2022-07-25T04:49:08.886Z,2.90
2022-07-25T04:51:35.585Z,3.30
2022-07-25T04:54:02.351Z,2.83
2022-07-25T04:56:29.223Z,3.23
2022-07-25T04:58:56.174Z,3.40
2022-07-25T05:01:22.938Z,3.07
2022-07-25T05:03:50.599Z,3.10
2022-07-25T05:06:19.457Z,2.93
2022-07-25T05:08:46.244Z,3.13
2022-07-25T05:11:13.055Z,2.90
2022-07-25T05:13:39.692Z,3.87
2022-07-25T05:16:06.654Z,3.27
2022-07-25T05:18:34.694Z,3.07
2022-07-25T05:21:01.458Z,3.70
2022-07-25T05:23:28.115Z,3.23
2022-07-25T05:25:54.834Z,2.77
2022-07-25T05:28:21.448Z,3.20
2022-07-25T05:30:48.179Z,3.33
2022-07-25T05:33:14.937Z,3.30
2022-07-25T05:35:41.730Z,3.03
2022-07-25T05:38:08.424Z,3.70
2022-07-25T05:40:35.129Z,3.77
2022-07-25T05:43:03.521Z,3.30
2022-07-25T05:45:30.866Z,3.30
2022-07-25T05:47:57.551Z,4.33
2022-07-25T05:50:24.369Z,3.23
2022-07-25T05:52:51.560Z,3.83
2022-07-25T05:55:18.315Z,5.00
2022-07-25T05:57:45.261Z,7.00
2022-07-25T06:00:12.495Z,5.37
2022-07-25T06:02:39.409Z,4.47
2022-07-25T06:05:06.432Z,4.40
2022-07-25T06:07:33.154Z,4.27
2022-07-25T06:09:59.821Z,4.40
2022-07-25T06:12:26.728Z,5.10
2022-07-25T06:14:53.586Z,4.00
2022-07-25T06:17:20.838Z,3.47
2022-07-25T06:19:47.513Z,8.30
2022-07-25T06:22:14.528Z,4.70
2022-07-25T06:24:41.768Z,3.80
2022-07-25T06:27:08.877Z,4.20
2022-07-25T06:29:35.875Z,3.83
2022-07-25T06:32:02.857Z,3.87
2022-07-25T06:34:29.739Z,4.30
2022-07-25T06:36:57.630Z,2.73
2022-07-25T06:39:25.296Z,4.10
2022-07-25T06:41:52.121Z,4.27
2022-07-25T06:44:18.815Z,3.60
2022-07-25T06:46:45.552Z,4.00
2022-07-25T06:49:12.339Z,4.63
2022-07-25T06:51:39.133Z,2.90
2022-07-25T06:54:07.139Z,3.43
2022-07-25T06:56:34.178Z,3.13
2022-07-25T06:59:00.857Z,3.30
2022-07-25T07:01:27.904Z,3.60
2022-07-25T07:03:54.987Z,3.53
2022-07-25T07:06:21.850Z,3.27
2022-07-25T07:08:48.512Z,3.20
2022-07-25T07:11:16.658Z,5.57
2022-07-25T07:13:43.292Z,4.07
2022-07-25T07:16:10.750Z,3.20
2022-07-25T07:18:38.192Z,2.90
2022-07-25T07:21:05.596Z,4.43
2022-07-25T07:23:33.055Z,3.43
2022-07-25T07:26:00.302Z,3.70
2022-07-25T07:28:27.007Z,3.00
2022-07-25T07:33:40.524Z,4.70
2022-07-25T07:36:07.465Z,3.97
2022-07-25T07:38:34.551Z,3.97
2022-07-25T07:41:01.187Z,3.70
2022-07-25T07:43:30.450Z,4.07
2022-07-25T07:46:01.086Z,3.20
2022-07-25T07:48:29.475Z,4.20
2022-07-25T07:50:56.577Z,4.30
2022-07-25T07:53:43.286Z,3.77
2022-07-25T07:56:09.991Z,3.73
2022-07-25T07:58:36.647Z,4.80
2022-07-25T08:01:03.605Z,4.20
2022-07-25T08:03:30.645Z,3.93
2022-07-25T08:05:57.293Z,4.57
2022-07-25T08:08:27.833Z,4.30
2022-07-25T08:10:59.170Z,3.67
2022-07-25T08:13:28.750Z,4.30
2022-07-25T08:15:59.076Z,4.20
2022-07-25T08:18:29.652Z,3.67
2022-07-25T08:20:56.722Z,5.20
2022-07-25T08:23:25.259Z,5.27
2022-07-25T08:25:52.676Z,4.40
2022-07-25T08:28:19.901Z,4.20
2022-07-25T08:30:46.784Z,4.90
2022-07-25T08:33:15.990Z,4.03
2022-07-25T08:35:52.125Z,4.60
2022-07-25T08:38:19.115Z,4.17
2022-07-25T08:40:45.892Z,5.23
2022-07-25T08:43:14.661Z,4.10
2022-07-25T08:45:54.179Z,4.77
2022-07-25T08:48:23.942Z,4.40
2022-07-25T08:50:51.640Z,4.43
2022-07-25T08:53:35.898Z,4.13
2022-07-25T08:56:13.406Z,4.70
2022-07-25T08:58:43.971Z,4.57
2022-07-25T09:01:11.693Z,4.97
2022-07-25T09:03:38.851Z,4.83
2022-07-25T09:06:19.760Z,4.00
2022-07-25T09:08:57.365Z,4.70
2022-07-25T09:11:35.700Z,4.93
2022-07-25T09:14:08.772Z,5.80
2022-07-25T09:16:41.447Z,4.40
2022-07-25T09:19:19.837Z,4.43
2022-07-25T09:21:59.771Z,4.50
2022-07-25T09:24:26.478Z,5.00
2022-07-25T09:26:55.116Z,4.10
2022-07-25T09:29:26.322Z,5.27
2022-07-25T09:31:55.467Z,5.00
2022-07-25T09:34:39.705Z,4.90
2022-07-25T09:37:12.284Z,5.10
2022-07-25T09:39:46.803Z,4.30
2022-07-25T09:42:19.936Z,4.50
2022-07-25T09:45:03.746Z,4.67
2022-07-25T09:47:31.750Z,4.27
2022-07-25T09:49:58.812Z,4.73
2022-07-25T09:52:25.732Z,4.30
2022-07-25T09:54:54.723Z,4.60
2022-07-25T09:57:24.029Z,4.83
2022-07-25T09:59:50.868Z,5.10
2022-07-25T10:02:41.652Z,5.30
2022-07-25T10:05:16.169Z,5.33
2022-07-25T10:07:47.193Z,4.57
2022-07-25T10:10:32.478Z,4.87
2022-07-25T10:13:11.063Z,4.00
2022-07-25T10:15:51.785Z,4.30
2022-07-25T10:18:21.241Z,4.37
2022-07-25T10:20:50.985Z,5.43
2022-07-25T10:23:19.730Z,4.50
2022-07-25T10:25:49.185Z,3.90
2022-07-25T10:28:19.428Z,5.07
2022-07-25T10:30:46.409Z,4.10
2022-07-25T10:33:18.583Z,4.93
2022-07-25T10:35:45.887Z,5.20
2022-07-25T10:38:12.734Z,4.90
2022-07-25T10:40:44.431Z,4.60
2022-07-25T10:43:19.289Z,4.60
2022-07-25T10:45:54.657Z,4.10
2022-07-25T10:48:23.833Z,3.97
2022-07-25T10:51:05.910Z,4.80
2022-07-25T10:53:46.187Z,4.40
2022-07-25T10:56:19.832Z,5.13
2022-07-25T10:58:55.105Z,4.23
2022-07-25T11:01:28.038Z,4.70
2022-07-25T11:03:58.586Z,5.10
2022-07-25T11:06:36.547Z,4.70
2022-07-25T11:09:27.332Z,4.53
2022-07-25T11:11:59.177Z,5.10
2022-07-25T11:14:33.294Z,4.90
2022-07-25T11:17:15.221Z,4.83
2022-07-25T11:20:02.263Z,4.73
2022-07-25T11:22:30.238Z,4.93
2022-07-25T11:24:58.021Z,4.30
2022-07-25T11:27:28.676Z,4.33
2022-07-25T11:30:16.970Z,4.50
2022-07-25T11:32:44.910Z,4.53
2022-07-25T11:35:13.888Z,4.20
2022-07-25T11:37:43.416Z,4.50
2022-07-25T11:40:11.102Z,5.17
2022-07-25T11:42:48.600Z,5.43
2022-07-25T11:45:26.795Z,4.27
2022-07-25T11:48:14.417Z,4.97
2022-07-25T11:50:43.460Z,4.03
2022-07-25T11:53:14.039Z,4.60
2022-07-25T11:55:42.829Z,5.30
2022-07-25T11:58:12.821Z,5.27
2022-07-25T12:00:41.441Z,4.57
2022-07-25T12:03:15.458Z,5.00
2022-07-25T12:05:45.605Z,4.17
2022-07-25T12:08:20.231Z,5.10
2022-07-25T12:10:48.420Z,4.27
2022-07-25T12:13:29.807Z,4.30
2022-07-25T12:16:00.237Z,4.67
2022-07-25T12:18:27.873Z,4.60
2022-07-25T12:20:54.677Z,4.70
2022-07-25T12:23:24.310Z,5.00
2022-07-25T12:25:51.161Z,4.10
2022-07-25T12:28:17.870Z,4.90
2022-07-25T12:30:45.756Z,4.20
2022-07-25T12:33:13.147Z,4.10
2022-07-25T12:35:43.874Z,4.80
2022-07-25T12:38:11.226Z,4.27
2022-07-25T12:40:38.248Z,4.90
2022-07-25T12:43:04.992Z,4.20
2022-07-25T12:45:31.715Z,4.90
2022-07-25T12:47:58.453Z,4.27
2022-07-25T12:50:25.983Z,4.93
2022-07-25T12:52:53.045Z,4.63
2022-07-25T12:55:20.574Z,4.33
2022-07-25T12:57:47.922Z,4.90
2022-07-25T13:00:17.778Z,4.73
2022-07-25T13:02:44.708Z,4.97
2022-07-25T13:05:11.642Z,4.50
2022-07-25T13:07:38.403Z,4.20
2022-07-25T13:10:06.491Z,4.90
2022-07-25T13:12:33.637Z,5.33
2022-07-25T13:15:00.442Z,4.50
2022-07-25T13:17:28.087Z,4.00
2022-07-25T13:19:56.254Z,4.37
2022-07-25T13:22:23.208Z,4.00
2022-07-25T13:24:50.024Z,4.33
2022-07-25T13:27:18.966Z,4.70
2022-07-25T13:29:45.891Z,4.67
2022-07-25T13:32:12.872Z,4.93
2022-07-25T13:34:39.715Z,4.50
2022-07-25T13:37:06.424Z,4.60
2022-07-25T13:39:33.746Z,4.63
2022-07-25T13:42:00.443Z,4.87
2022-07-25T13:44:27.107Z,3.80
2022-07-25T13:46:53.886Z,5.27
2022-07-25T13:49:20.591Z,4.87
2022-07-25T13:51:47.598Z,4.90
2022-07-25T13:54:14.406Z,4.30
2022-07-25T13:56:42.359Z,4.60
2022-07-25T13:59:09.839Z,4.50
2022-07-25T14:01:36.940Z,4.90
2022-07-25T14:04:03.793Z,4.90
2022-07-25T14:06:30.436Z,4.47
2022-07-25T14:08:57.108Z,5.40
2022-07-25T14:11:27.324Z,5.20
2022-07-25T14:13:57.813Z,5.60
2022-07-25T14:16:24.696Z,5.07
2022-07-25T14:18:51.677Z,5.87
2022-07-25T14:21:18.623Z,5.50
2022-07-25T14:23:45.363Z,5.47
2022-07-25T14:26:12.784Z,7.00
2022-07-25T14:28:39.459Z,5.90
2022-07-25T14:31:06.297Z,6.50
2022-07-25T14:33:37.779Z,6.23
2022-07-25T14:36:04.783Z,5.90
2022-07-25T14:38:31.964Z,6.67
2022-07-25T14:40:58.724Z,6.20
2022-07-25T14:43:25.423Z,5.80
2022-07-25T14:45:52.212Z,6.07
2022-07-25T14:48:18.978Z,6.30
2022-07-25T14:50:45.597Z,5.77
2022-07-25T14:53:13.399Z,5.43
2022-07-25T14:55:40.384Z,4.87
2022-07-25T14:58:07.487Z,4.77
2022-07-25T15:00:34.248Z,4.53
2022-07-25T15:03:01.616Z,4.80
2022-07-25T15:05:28.343Z,4.40
2022-07-25T15:07:55.185Z,4.30
2022-07-25T15:10:22.269Z,5.00
2022-07-25T15:12:54.264Z,5.10
2022-07-25T15:15:28.903Z,4.53
2022-07-25T15:17:55.803Z,4.70
2022-07-25T15:20:22.446Z,3.90
2022-07-25T15:22:49.186Z,3.97
2022-07-25T15:25:58.382Z,3.50
2022-07-25T15:28:02.714Z,3.33
2022-07-25T15:30:29.621Z,3.40
2022-07-25T15:32:56.323Z,3.83
2022-07-25T15:35:23.044Z,3.73
2022-07-25T15:37:49.945Z,3.83
2022-07-25T15:40:16.689Z,4.03
2022-07-25T15:42:44.120Z,4.50
2022-07-25T15:47:59.694Z,4.20
2022-07-25T15:50:26.320Z,3.97
2022-07-25T15:52:52.969Z,5.10
2022-07-25T15:55:19.653Z,5.13
2022-07-25T15:57:46.361Z,5.17
2022-07-25T16:00:13.446Z,4.83
2022-07-25T16:02:40.120Z,4.97
2022-07-25T16:05:07.019Z,5.17
2022-07-25T16:07:33.694Z,5.40
2022-07-25T16:10:00.349Z,4.73
2022-07-25T16:12:28.793Z,4.43
2022-07-25T16:14:55.748Z,5.87
2022-07-25T16:17:22.947Z,5.10
2022-07-25T16:19:49.784Z,4.73
2022-07-25T16:22:16.421Z,5.37
2022-07-25T16:24:43.126Z,4.33
2022-07-25T16:27:10.019Z,5.23
2022-07-25T16:29:37.349Z,4.30
2022-07-25T16:32:04.598Z,4.83
2022-07-25T16:34:31.873Z,4.97
2022-07-25T16:36:59.173Z,4.87
2022-07-25T16:39:25.787Z,4.87
2022-07-25T16:41:52.511Z,5.23
2022-07-25T16:44:19.207Z,4.73
2022-07-25T16:46:46.174Z,4.80
2022-07-25T16:49:16.726Z,5.30
2022-07-25T16:51:44.808Z,5.30
2022-07-25T16:54:11.683Z,3.93
2022-07-25T16:56:38.907Z,5.10
2022-07-25T16:59:06.973Z,4.30
2022-07-25T17:01:35.093Z,5.17
2022-07-25T17:04:02.054Z,4.73
2022-07-25T17:06:28.971Z,4.13
2022-07-25T17:08:55.918Z,4.50
2022-07-25T17:11:22.716Z,3.70
2022-07-25T17:13:49.371Z,4.37
2022-07-25T17:16:16.142Z,4.27
2022-07-25T17:18:43.024Z,3.90
2022-07-25T17:21:10.567Z,4.80
2022-07-25T17:23:37.228Z,3.10
2022-07-25T17:26:05.244Z,4.30
2022-07-25T17:28:32.369Z,3.60
2022-07-25T17:30:59.275Z,3.20
2022-07-25T17:33:26.342Z,3.80
2022-07-25T17:35:53.377Z,3.70
2022-07-25T17:38:25.394Z,4.43
2022-07-25T17:40:53.134Z,3.57
2022-07-25T17:43:19.863Z,3.70
2022-07-25T17:45:46.632Z,3.47
2022-07-25T17:48:13.366Z,4.53
2022-07-25T17:50:40.018Z,5.13
2022-07-25T17:53:06.675Z,4.47
2022-07-25T17:55:38.501Z,3.87
2022-07-25T17:58:05.924Z,3.90
2022-07-25T18:00:32.717Z,5.30
2022-07-25T18:02:59.534Z,4.00
2022-07-25T18:05:26.807Z,3.53
2022-07-25T18:07:53.923Z,3.27
2022-07-25T18:10:24.074Z,4.13
2022-07-25T18:12:51.049Z,4.07
2022-07-25T18:15:17.898Z,3.60
2022-07-25T18:17:46.203Z,3.50
2022-07-25T18:20:15.315Z,3.37
2022-07-25T18:22:42.670Z,4.37
2022-07-25T18:25:11.509Z,4.00
2022-07-25T18:27:42.561Z,3.83
2022-07-25T18:30:10.639Z,3.50
2022-07-25T18:32:38.759Z,4.07
2022-07-25T18:35:07.773Z,4.30
2022-07-25T18:37:35.394Z,3.93
2022-07-25T18:40:02.140Z,3.40
2022-07-25T18:42:30.124Z,3.77
2022-07-25T18:44:57.187Z,3.50
2022-07-25T18:47:26.420Z,3.93
2022-07-25T18:49:58.879Z,3.00
2022-07-25T18:52:25.588Z,3.87
2022-07-25T18:54:52.331Z,3.33
2022-07-25T18:57:19.047Z,3.60
2022-07-25T18:59:45.724Z,3.80
2022-07-25T19:02:12.575Z,4.03
2022-07-25T19:04:40.499Z,3.50
2022-07-25T19:07:08.002Z,3.33
2022-07-25T19:09:35.057Z,4.07
2022-07-25T19:12:01.837Z,3.77
2022-07-25T19:14:30.621Z,3.57
2022-07-25T19:16:58.205Z,3.30
2022-07-25T19:19:25.862Z,3.70
2022-07-25T19:21:53.925Z,4.07
2022-07-25T19:24:21.124Z,4.03
2022-07-25T19:26:49.007Z,4.07
2022-07-25T19:29:16.741Z,4.27
2022-07-25T19:31:44.014Z,4.37
2022-07-25T19:34:11.543Z,4.33
2022-07-25T19:36:38.582Z,4.80
2022-07-25T19:39:06.232Z,3.83
2022-07-25T19:41:33.367Z,4.60
2022-07-25T19:44:00.158Z,4.37
2022-07-25T19:46:31.045Z,3.80
2022-07-25T19:48:58.262Z,4.03
2022-07-25T19:51:25.468Z,4.30
2022-07-25T19:53:52.310Z,3.13
2022-07-25T19:56:19.599Z,4.27
2022-07-25T19:58:46.924Z,4.50
2022-07-25T20:01:13.804Z,4.00
2022-07-25T20:03:41.361Z,3.77
2022-07-25T20:06:08.864Z,3.27
2022-07-25T20:08:36.757Z,3.20
2022-07-25T20:11:03.762Z,3.43
2022-07-25T20:13:30.612Z,2.90
2022-07-25T20:15:58.520Z,3.20
2022-07-25T20:18:25.202Z,3.70
2022-07-25T20:20:51.901Z,2.70
2022-07-25T20:23:18.685Z,3.57
2022-07-25T20:25:45.464Z,3.33
2022-07-25T20:28:12.485Z,3.43
2022-07-25T20:30:39.550Z,4.87
2022-07-25T20:33:09.441Z,3.67
2022-07-25T20:35:37.953Z,3.37
2022-07-25T20:38:09.406Z,3.00
2022-07-25T20:40:39.204Z,2.60
2022-07-25T20:43:08.592Z,3.40
2022-07-25T20:45:35.295Z,3.53
2022-07-25T20:48:02.219Z,3.30
2022-07-25T20:50:29.029Z,3.90
2022-07-25T20:52:55.678Z,2.97
2022-07-25T20:55:22.452Z,3.67
2022-07-25T20:57:50.907Z,4.17
2022-07-25T21:00:18.134Z,3.33
2022-07-25T21:02:44.971Z,3.83
2022-07-25T21:05:11.698Z,4.00
2022-07-25T21:07:38.433Z,3.33
2022-07-25T21:10:05.450Z,3.83
2022-07-25T21:12:33.016Z,3.30
2022-07-25T21:15:01.102Z,3.40
2022-07-25T21:17:27.986Z,4.00
2022-07-25T21:19:54.661Z,3.57
2022-07-25T21:22:21.455Z,3.80
2022-07-25T21:24:49.522Z,3.97
2022-07-25T21:27:17.089Z,3.90
2022-07-25T21:29:44.516Z,4.10
2022-07-25T21:32:13.560Z,4.30
2022-07-25T21:34:41.418Z,3.60
2022-07-25T21:37:08.374Z,5.80
2022-07-25T21:39:35.234Z,4.80
2022-07-25T21:42:02.224Z,4.27
2022-07-25T21:44:31.156Z,3.17
2022-07-25T21:46:57.791Z,4.30
2022-07-25T21:49:43.268Z,4.43
2022-07-25T21:52:13.878Z,4.20
2022-07-25T21:54:41.870Z,4.00
2022-07-25T21:57:13.736Z,4.43
2022-07-25T21:59:44.798Z,3.43
2022-07-25T22:02:12.859Z,3.13
2022-07-25T22:04:39.617Z,4.87
2022-07-25T22:07:06.357Z,3.43
2022-07-25T22:09:33.004Z,3.40
2022-07-25T22:11:59.677Z,3.70
2022-07-25T22:14:26.343Z,4.03
2022-07-25T22:16:53.286Z,3.50
2022-07-25T22:19:22.463Z,3.67
2022-07-25T22:21:50.001Z,4.70
2022-07-25T22:24:17.112Z,3.67
2022-07-25T22:26:43.892Z,3.80
2022-07-25T22:29:11.298Z,3.90
2022-07-25T22:31:39.065Z,4.00
2022-07-25T22:34:06.429Z,3.43
2022-07-25T22:36:33.553Z,4.10
2022-07-25T22:39:00.194Z,3.60
2022-07-25T22:41:26.871Z,4.73
2022-07-25T22:43:57.950Z,4.53
2022-07-25T22:46:26.991Z,3.90
2022-07-25T22:48:53.754Z,3.80
2022-07-25T22:51:20.580Z,4.40
2022-07-25T22:53:47.256Z,4.10
2022-07-25T22:56:13.950Z,4.40
2022-07-25T22:58:40.583Z,3.67
2022-07-25T23:01:07.284Z,4.30
2022-07-25T23:03:35.203Z,3.37
2022-07-25T23:06:01.950Z,4.03
2022-07-25T23:08:29.084Z,4.20
2022-07-25T23:10:55.901Z,3.30
2022-07-25T23:13:22.598Z,3.10
2022-07-25T23:15:51.140Z,3.97
2022-07-25T23:18:18.728Z,3.57
2022-07-25T23:20:45.562Z,3.90
2022-07-25T23:23:12.439Z,3.13
2022-07-25T23:25:39.140Z,3.00
2022-07-25T23:28:05.818Z,3.03
2022-07-25T23:30:38.020Z,3.57
2022-07-25T23:33:07.193Z,3.33
2022-07-25T23:35:33.946Z,4.23
2022-07-25T23:38:00.622Z,3.67
2022-07-25T23:40:27.359Z,3.87
2022-07-25T23:42:54.464Z,3.43
2022-07-25T23:45:22.258Z,3.00
2022-07-25T23:47:52.162Z,3.93
2022-07-25T23:50:19.786Z,3.47
2022-07-25T23:52:46.461Z,3.73
2022-07-25T23:55:13.097Z,3.83
2022-07-25T23:57:40.071Z,3.87
